X  Close Metar Aviation Weather Data     KSJC Norman Y Mineta San Jose International
Temperature
61°F Temperature
54°F Dewpoint
77% Humidity



Wind
8 MPH
13 KM/H
4 M/S
7 KTS



150°
SSE
Current Conditions

Partly Cloudy Partly Cloudy
Pressure 1012.22 (hPa) - 29.89 (inHg)
Visibility 10 (mile) - 16.1 (km)
Airport
Airport-code KSJC

Location: Norman Y Mineta San Jose International
Distance: 14 (mi)

Metar:
KSJC 291453Z 15007KT 10SM FEW008 SCT050 SCT090 16/12 A2989 RMK AO2 SLP120 T01610117 50002

Time: 29-05-2020 7:53 am PDT